Time;durP1;ratioP1;P1;durP2;ratioP2;P2;SDS_P1;SDS_P2;PMS_P1;PMS_P2;Temp;Humidity;BMP_temperature;BMP_pressure;BME280_temperature;BME280_humidity;BME280_pressure;Samples;Min_cycle;Max_cycle;Signal;HPM_P1;HPM_P2
2023/10/11 00:02:54;;;;;;;8.18;6.95;;;10.80;99.90;;;;;;5000845;28;20186;-62
2023/10/11 00:05:19;;;;;;;11.70;7.47;;;10.80;99.90;;;;;;5001792;28;20568;-62
2023/10/11 00:07:45;;;;;;;10.10;7.07;;;10.80;99.90;;;;;;5000347;28;20421;-62
2023/10/11 00:10:11;;;;;;;8.57;7.60;;;10.70;99.90;;;;;;5000842;28;20084;-63
2023/10/11 00:12:41;;;;;;;10.90;8.23;;;10.70;99.90;;;;;;4998036;28;20030;-62
2023/10/11 00:15:09;;;;;;;8.43;7.68;;;10.70;99.90;;;;;;4999877;28;20129;-63
2023/10/11 00:17:36;;;;;;;8.00;7.28;;;10.70;99.90;;;;;;5002521;28;20027;-62
2023/10/11 00:20:19;;;;;;;10.27;8.88;;;10.80;99.90;;;;;;5002545;28;20023;-63
2023/10/11 00:22:45;;;;;;;9.52;8.27;;;10.80;99.90;;;;;;5016339;28;20141;-62
2023/10/11 00:25:23;;;;;;;8.98;7.72;;;10.80;99.90;;;;;;5001789;28;20049;-62
2023/10/11 00:27:52;;;;;;;9.27;7.28;;;10.80;99.90;;;;;;5000000;28;20026;-62
2023/10/11 00:30:21;;;;;;;11.93;7.43;;;10.80;99.90;;;;;;4997330;28;20022;-63
2023/10/11 00:32:47;;;;;;;20.80;8.20;;;10.80;99.90;;;;;;5001959;28;20481;-62
2023/10/11 00:35:18;;;;;;;10.60;7.30;;;10.80;99.90;;;;;;4998459;28;20088;-62
2023/10/11 00:37:49;;;;;;;9.43;7.95;;;10.80;99.90;;;;;;4998620;28;20026;-63
2023/10/11 00:40:25;;;;;;;21.42;8.32;;;10.80;99.90;;;;;;4997155;28;20066;-63
2023/10/11 00:42:54;;;;;;;11.95;6.43;;;10.80;99.90;;;;;;4997332;28;20037;-63
2023/10/11 00:45:22;;;;;;;9.70;6.88;;;10.80;99.90;;;;;;5000727;28;20611;-62
2023/10/11 00:47:51;;;;;;;7.13;5.93;;;10.80;99.90;;;;;;5000309;28;20601;-63
2023/10/11 00:50:17;;;;;;;9.02;7.40;;;10.80;99.90;;;;;;4995072;28;20045;-63
2023/10/11 00:52:45;;;;;;;7.00;5.93;;;10.80;99.90;;;;;;4994693;28;20473;-62
2023/10/11 00:55:18;;;;;;;10.45;7.00;;;10.80;99.90;;;;;;4997744;28;20035;-62
2023/10/11 00:57:46;;;;;;;9.18;6.75;;;10.80;99.90;;;;;;4999476;28;20038;-63
2023/10/11 01:00:15;;;;;;;8.80;6.57;;;10.80;99.90;;;;;;5002436;28;20034;-63
2023/10/11 01:02:44;;;;;;;7.88;6.85;;;10.80;99.90;;;;;;5005144;28;20126;-63
2023/10/11 01:05:11;;;;;;;8.52;6.95;;;10.70;99.90;;;;;;5000467;28;20443;-62
2023/10/11 01:07:37;;;;;;;8.80;7.20;;;10.70;99.90;;;;;;5001490;28;20493;-62
2023/10/11 01:10:06;;;;;;;7.75;7.03;;;10.70;99.90;;;;;;4999308;28;20026;-62
2023/10/11 01:12:32;;;;;;;15.38;7.95;;;10.70;99.90;;;;;;4999615;28;20506;-63
2023/10/11 01:14:58;;;;;;;16.65;8.20;;;10.70;99.90;;;;;;5003668;28;20017;-63
2023/10/11 01:17:26;;;;;;;11.18;7.90;;;10.70;99.90;;;;;;4997322;28;20034;-61
2023/10/11 01:19:52;;;;;;;12.85;9.00;;;10.70;99.90;;;;;;5000826;28;20060;-62
2023/10/11 01:22:21;;;;;;;13.32;8.50;;;10.70;99.90;;;;;;4998872;28;20042;-62
2023/10/11 01:24:50;;;;;;;11.77;8.05;;;10.80;99.90;;;;;;4997805;28;20029;-62
2023/10/11 01:27:16;;;;;;;11.90;7.85;;;10.70;99.90;;;;;;4997410;28;20117;-62
2023/10/11 01:29:41;;;;;;;14.27;8.93;;;10.70;99.90;;;;;;4999720;28;20418;-62
2023/10/11 01:32:07;;;;;;;8.45;7.63;;;10.70;99.90;;;;;;5000236;28;20032;-62
2023/10/11 01:34:33;;;;;;;14.70;7.53;;;10.70;99.90;;;;;;4999078;28;20541;-62
2023/10/11 01:36:59;;;;;;;9.05;5.57;;;10.60;99.90;;;;;;5000004;28;20030;-62
2023/10/11 01:39:25;;;;;;;9.68;7.07;;;10.60;99.90;;;;;;4999307;28;20031;-62
2023/10/11 01:41:54;;;;;;;11.63;7.18;;;10.60;99.90;;;;;;4999237;28;20088;-62
2023/10/11 01:44:22;;;;;;;8.68;7.43;;;10.60;99.90;;;;;;5001223;28;20042;-62
2023/10/11 01:46:48;;;;;;;11.27;8.07;;;10.60;99.90;;;;;;4998516;28;20063;-62
2023/10/11 01:49:14;;;;;;;10.45;7.38;;;10.60;99.90;;;;;;4995896;28;20096;-62
2023/10/11 01:51:46;;;;;;;11.85;7.65;;;10.70;99.90;;;;;;5000686;28;20452;-62
2023/10/11 01:54:12;;;;;;;12.02;7.50;;;10.70;99.90;;;;;;4997971;28;20038;-60
2023/10/11 01:56:41;;;;;;;11.77;9.30;;;10.70;99.90;;;;;;5001702;28;20025;-62
2023/10/11 01:59:07;;;;;;;13.15;8.70;;;10.80;99.90;;;;;;4997507;28;20034;-62
2023/10/11 02:01:39;;;;;;;14.65;8.13;;;10.80;99.90;;;;;;4997664;28;20046;-61
2023/10/11 02:04:18;;;;;;;12.25;8.20;;;10.80;99.90;;;;;;4999668;28;20100;-62
2023/10/11 02:06:44;;;;;;;10.82;8.02;;;10.90;99.90;;;;;;5001568;28;20120;-62
2023/10/11 02:09:11;;;;;;;12.07;8.38;;;10.90;99.90;;;;;;4998896;28;20137;-62
2023/10/11 02:11:41;;;;;;;10.90;8.48;;;10.90;99.90;;;;;;4995185;28;20017;-62
2023/10/11 02:14:07;;;;;;;9.25;8.32;;;10.90;99.90;;;;;;4996654;28;20501;-63
2023/10/11 02:16:33;;;;;;;14.98;8.60;;;11.00;99.90;;;;;;4999708;28;20033;-62
2023/10/11 02:18:59;;;;;;;17.50;9.23;;;11.00;99.90;;;;;;4996429;28;20022;-62
2023/10/11 02:21:25;;;;;;;8.35;7.47;;;11.00;99.90;;;;;;5000505;28;20061;-62
2023/10/11 02:23:51;;;;;;;11.25;7.82;;;11.00;99.90;;;;;;4998362;28;20440;-62
2023/10/11 02:26:16;;;;;;;14.07;8.15;;;11.10;99.90;;;;;;5003029;28;20030;-62
2023/10/11 02:28:44;;;;;;;14.35;8.25;;;11.10;99.90;;;;;;4997705;28;20034;-62
2023/10/11 02:31:13;;;;;;;11.35;8.13;;;11.10;99.90;;;;;;4998741;28;20059;-61
2023/10/11 02:33:39;;;;;;;9.68;7.53;;;11.20;99.90;;;;;;4998457;28;20037;-62
2023/10/11 02:36:09;;;;;;;13.18;7.63;;;11.20;99.90;;;;;;5000081;28;20018;-62
2023/10/11 02:38:47;;;;;;;13.93;7.63;;;11.20;99.90;;;;;;4999682;28;20033;-62
2023/10/11 02:41:24;;;;;;;11.18;7.47;;;11.30;99.90;;;;;;4997692;28;20281;-62
2023/10/11 02:43:51;;;;;;;10.57;7.90;;;11.30;99.90;;;;;;5000091;28;20033;-62
2023/10/11 02:46:17;;;;;;;10.45;7.82;;;11.30;99.90;;;;;;4996077;28;20045;-62
2023/10/11 02:48:48;;;;;;;9.02;7.05;;;11.30;99.90;;;;;;5000044;28;20041;-63
2023/10/11 02:51:17;;;;;;;8.32;7.03;;;11.30;99.90;;;;;;4997515;28;20044;-62
2023/10/11 02:53:46;;;;;;;13.90;7.18;;;11.30;99.90;;;;;;5000056;28;20508;-62
2023/10/11 02:56:14;;;;;;;8.82;6.38;;;11.30;99.90;;;;;;5003233;28;20109;-62
2023/10/11 02:58:39;;;;;;;7.45;6.28;;;11.40;99.90;;;;;;4999261;28;20042;-62
2023/10/11 03:01:14;;;;;;;10.25;7.55;;;11.30;99.90;;;;;;5002312;28;20113;-62
2023/10/11 03:03:43;;;;;;;9.40;6.65;;;11.40;99.90;;;;;;5003240;28;20531;-62
2023/10/11 03:06:09;;;;;;;17.00;7.90;;;11.40;99.90;;;;;;5001160;28;20129;-61
2023/10/11 03:08:40;;;;;;;10.80;7.43;;;11.40;99.90;;;;;;5005944;28;20042;-62
2023/10/11 03:11:08;;;;;;;;;;;11.40;99.90;;;;;;5002497;28;20038;-62
2023/10/11 03:13:43;;;;;;;9.38;7.38;;;11.40;99.90;;;;;;5002192;28;20004;-62
2023/10/11 03:16:13;;;;;;;10.32;7.05;;;11.40;99.90;;;;;;5003027;28;20026;-61
2023/10/11 03:18:40;;;;;;;11.07;7.28;;;11.40;99.90;;;;;;5001705;28;20393;-61
2023/10/11 03:21:19;;;;;;;11.88;7.43;;;11.40;99.90;;;;;;5001401;28;20026;-63
2023/10/11 03:23:47;;;;;;;9.05;6.68;;;11.40;99.90;;;;;;5000835;28;20611;-62
2023/10/11 03:28:45;;;;;;;11.55;7.28;;;11.40;99.90;;;;;;5000332;28;20033;-62
2023/10/11 03:31:15;;;;;;;11.15;7.00;;;11.50;99.90;;;;;;5002875;28;20405;-61
2023/10/11 03:33:41;;;;;;;11.85;7.20;;;11.50;99.90;;;;;;4999870;28;20033;-62
2023/10/11 03:36:17;;;;;;;12.32;7.15;;;11.40;99.90;;;;;;4999047;28;20025;-63
2023/10/11 03:38:53;;;;;;;13.80;7.93;;;11.40;99.90;;;;;;5001287;28;20740;-62
2023/10/11 03:41:28;;;;;;;7.82;6.63;;;11.40;99.90;;;;;;5001318;28;20082;-62
2023/10/11 03:43:55;;;;;;;10.23;6.55;;;11.40;99.90;;;;;;5000561;28;20795;-63
2023/10/11 03:46:28;;;;;;;10.55;6.60;;;11.40;99.90;;;;;;5001663;28;20042;-62
2023/10/11 03:49:02;;;;;;;12.48;8.73;;;11.50;99.90;;;;;;4999787;28;20513;-63
2023/10/11 03:51:29;;;;;;;11.90;7.22;;;11.50;99.90;;;;;;4999718;28;20184;-62
2023/10/11 03:53:54;;;;;;;13.15;7.32;;;11.50;99.90;;;;;;5001091;28;20038;-62
2023/10/11 03:56:20;;;;;;;14.25;6.78;;;11.50;99.90;;;;;;5001064;28;20092;-61
2023/10/11 03:58:50;;;;;;;8.45;7.45;;;11.50;99.90;;;;;;5000516;28;20038;-62
2023/10/11 04:03:44;;;;;;;11.13;7.45;;;11.50;99.90;;;;;;5000051;28;20041;-63
2023/10/11 04:06:19;;;;;;;10.55;8.30;;;11.50;99.90;;;;;;5000188;28;20019;-61
2023/10/11 04:08:50;;;;;;;16.88;8.15;;;11.50;99.90;;;;;;5001379;28;20026;-62
2023/10/11 04:11:22;;;;;;;9.98;6.75;;;11.50;99.90;;;;;;4999734;28;20041;-62
2023/10/11 04:13:49;;;;;;;15.55;7.38;;;11.50;99.90;;;;;;5000986;28;20109;-61
2023/10/11 04:16:18;;;;;;;9.15;6.78;;;11.50;99.90;;;;;;5002421;28;20119;-62
2023/10/11 04:18:44;;;;;;;10.77;8.07;;;11.50;99.90;;;;;;4999589;28;20036;-62
2023/10/11 04:23:36;;;;;;;13.38;8.13;;;11.50;99.90;;;;;;4998545;28;20105;-62
2023/10/11 04:26:09;;;;;;;11.50;7.90;;;11.40;99.90;;;;;;5000460;28;20381;-62
2023/10/11 04:28:41;;;;;;;10.88;8.52;;;11.40;99.90;;;;;;4999120;28;20054;-62
2023/10/11 04:33:51;;;;;;;15.38;8.38;;;11.40;99.90;;;;;;4997036;28;20032;-62
2023/10/11 04:36:20;;;;;;;9.60;7.25;;;11.40;99.90;;;;;;5003021;28;20661;-62
2023/10/11 04:38:49;;;;;;;15.32;8.18;;;11.40;99.90;;;;;;4998925;28;20037;-61
2023/10/11 04:41:17;;;;;;;8.38;7.57;;;11.40;99.90;;;;;;5002674;28;20038;-62
2023/10/11 04:43:50;;;;;;;9.02;7.18;;;11.30;99.90;;;;;;5001725;28;20894;-62
2023/10/11 04:46:18;;;;;;;9.55;7.63;;;11.30;99.90;;;;;;5000256;28;21387;-62
2023/10/11 04:48:45;;;;;;;11.57;9.13;;;11.30;99.90;;;;;;5001210;28;20107;-62
2023/10/11 04:59:07;;;;;;;13.65;7.97;;;11.30;99.90;;;;;;4998987;28;20688;-62
2023/10/11 05:04:15;;;;;;;11.75;8.38;;;11.20;99.90;;;;;;4998294;28;20065;-62
2023/10/11 05:06:45;;;;;;;9.88;6.75;;;11.20;99.90;;;;;;5000129;28;20034;-62
2023/10/11 05:11:50;;;;;;;15.23;7.90;;;11.20;99.90;;;;;;5001101;28;20113;-62
2023/10/11 05:14:38;;;;;;;14.25;9.00;;;11.10;99.90;;;;;;5001082;28;20037;-62
2023/10/11 05:19:39;;;;;;;10.65;8.73;;;11.10;99.90;;;;;;4998595;28;20038;-63
2023/10/11 05:22:08;;;;;;;8.50;7.22;;;11.10;99.90;;;;;;5000358;28;20023;-62
2023/10/11 05:32:42;;;;;;;10.32;7.43;;;11.10;99.90;;;;;;4998342;28;20371;-62
2023/10/11 05:51:26;;;;;;;11.07;8.07;;;11.30;99.90;;;;;;4998938;28;20042;-61
2023/10/11 05:53:56;;;;;;;10.43;8.13;;;11.30;99.90;;;;;;5000954;28;20113;-62
2023/10/11 05:56:22;;;;;;;13.88;7.57;;;11.30;99.90;;;;;;5003928;28;20030;-62
2023/10/11 05:58:49;;;;;;;12.05;8.40;;;11.30;99.90;;;;;;4999590;28;20073;-61
2023/10/11 06:01:17;;;;;;;15.73;8.30;;;11.30;99.90;;;;;;5005062;28;20045;-62
2023/10/11 06:03:48;;;;;;;9.85;7.55;;;11.30;99.90;;;;;;5002967;28;20037;-61
2023/10/11 06:06:38;;;;;;;14.95;7.95;;;11.30;99.90;;;;;;5005426;28;20031;-62
2023/10/11 06:09:16;;;;;;;12.07;7.60;;;11.30;99.90;;;;;;4997775;28;20466;-62
2023/10/11 06:11:47;;;;;;;12.98;7.82;;;11.30;99.90;;;;;;4996683;28;20437;-62
2023/10/11 06:14:17;;;;;;;14.82;7.90;;;11.30;99.90;;;;;;5000839;28;20465;-62
2023/10/11 06:16:49;;;;;;;13.35;7.85;;;11.40;99.90;;;;;;4996621;28;20041;-62
2023/10/11 06:19:18;;;;;;;12.05;9.27;;;11.40;99.90;;;;;;5000097;28;20034;-63
2023/10/11 06:21:57;;;;;;;22.98;8.65;;;11.50;99.90;;;;;;5000700;28;20136;-63
2023/10/11 06:24:36;;;;;;;19.95;7.78;;;11.70;99.90;;;;;;5000647;28;20057;-63
2023/10/11 06:29:53;;;;;;;14.65;9.80;;;11.90;99.90;;;;;;5000310;28;21025;-63
2023/10/11 06:32:23;;;;;;;12.50;8.25;;;12.00;99.90;;;;;;5002775;28;20571;-63
2023/10/11 06:34:52;;;;;;;10.90;7.60;;;12.10;99.90;;;;;;5000274;28;20042;-62
2023/10/11 06:37:24;;;;;;;9.73;7.35;;;12.10;99.90;;;;;;5003930;28;20050;-62
2023/10/11 06:42:23;;;;;;;19.60;8.52;;;12.20;99.90;;;;;;5001603;28;20038;-63
2023/10/11 06:44:59;;;;;;;9.32;6.85;;;12.30;99.90;;;;;;5002644;28;20030;-62
2023/10/11 06:47:36;;;;;;;11.70;7.43;;;12.30;99.90;;;;;;5003857;28;20034;-62
2023/10/11 06:50:12;;;;;;;14.82;7.50;;;12.40;99.90;;;;;;5000649;28;20401;-63
2023/10/11 06:52:43;;;;;;;8.82;7.10;;;12.50;99.90;;;;;;5002640;28;20092;-63
2023/10/11 06:55:14;;;;;;;10.27;7.05;;;12.60;99.90;;;;;;5002978;28;20374;-62
2023/10/11 06:58:03;;;;;;;13.18;7.10;;;12.60;99.90;;;;;;5002619;28;20065;-62
2023/10/11 07:00:29;;;;;;;10.23;7.20;;;12.70;99.90;;;;;;5002067;28;20105;-62
2023/10/11 07:03:06;;;;;;;12.25;7.75;;;12.70;99.90;;;;;;5004203;28;20073;-62
2023/10/11 07:05:41;;;;;;;9.98;6.63;;;12.80;99.90;;;;;;5003811;28;20022;-62
2023/10/11 07:08:08;;;;;;;13.82;8.20;;;12.90;99.90;;;;;;5001985;28;20050;-63
2023/10/11 07:10:34;;;;;;;12.43;7.47;;;12.90;99.90;;;;;;5004039;28;20069;-62
2023/10/11 07:13:04;;;;;;;11.98;7.85;;;13.00;99.90;;;;;;5004101;28;20033;-63
2023/10/11 07:15:37;;;;;;;10.73;7.18;;;13.10;99.90;;;;;;4998890;28;20034;-63
2023/10/11 07:18:10;;;;;;;8.77;6.13;;;13.20;99.90;;;;;;5003177;28;20030;-63
2023/10/11 07:20:49;;;;;;;11.27;7.38;;;13.20;99.90;;;;;;5004819;28;20018;-62
2023/10/11 07:23:19;;;;;;;9.35;6.55;;;13.20;99.90;;;;;;5005473;28;20070;-62
2023/10/11 07:25:59;;;;;;;12.52;8.52;;;13.10;99.90;;;;;;5003007;28;20038;-63
2023/10/11 07:28:35;;;;;;;14.00;7.55;;;13.00;99.90;;;;;;5002856;28;20050;-63
2023/10/11 07:31:04;;;;;;;14.52;7.53;;;13.00;99.90;;;;;;4999016;28;20057;-64
2023/10/11 07:33:31;;;;;;;17.85;8.73;;;12.90;99.90;;;;;;4998048;28;20932;-62
2023/10/11 07:36:00;;;;;;;31.17;12.75;;;12.80;99.90;;;;;;5004349;28;20026;-63
2023/10/11 07:38:34;;;;;;;24.38;11.65;;;12.70;99.90;;;;;;5003515;28;20054;-63
2023/10/11 07:41:17;;;;;;;24.27;12.88;;;12.70;99.90;;;;;;5005078;28;20030;-62
2023/10/11 07:43:45;;;;;;;20.55;11.90;;;12.70;99.90;;;;;;4999494;28;20517;-61
2023/10/11 07:46:11;;;;;;;21.60;12.57;;;12.70;99.90;;;;;;5001655;28;20022;-63
2023/10/11 07:48:39;;;;;;;16.80;10.18;;;12.80;99.90;;;;;;5000121;28;20059;-62
2023/10/11 07:51:14;;;;;;;13.20;8.95;;;13.00;99.90;;;;;;5005088;28;20109;-63
2023/10/11 07:53:43;;;;;;;24.08;13.52;;;13.00;99.90;;;;;;5001797;28;20022;-62
2023/10/11 07:56:15;;;;;;;19.35;10.55;;;13.10;99.90;;;;;;4999780;28;20061;-62
2023/10/11 07:58:45;;;;;;;19.40;10.52;;;13.20;99.90;;;;;;5001718;28;20030;-61
2023/10/11 08:01:16;;;;;;;20.90;10.93;;;13.30;99.90;;;;;;4999889;28;20398;-62
2023/10/11 08:03:44;;;;;;;10.50;7.63;;;13.40;99.90;;;;;;5001839;28;20072;-63
2023/10/11 08:06:12;;;;;;;10.35;8.07;;;13.50;99.90;;;;;;4996728;28;20026;-62
2023/10/11 08:08:38;;;;;;;13.80;8.45;;;13.60;99.90;;;;;;4996337;28;20109;-63
2023/10/11 08:11:18;;;;;;;14.35;8.00;;;13.70;99.90;;;;;;5000544;28;20041;-63
2023/10/11 08:13:47;;;;;;;14.00;8.13;;;13.90;99.90;;;;;;5001535;28;20034;-63
2023/10/11 08:16:17;;;;;;;12.43;7.25;;;14.00;99.90;;;;;;5000516;28;20394;-63
2023/10/11 08:18:48;;;;;;;14.45;8.20;;;14.20;99.90;;;;;;5001687;28;20113;-62
2023/10/11 08:21:15;;;;;;;11.55;8.93;;;14.30;99.90;;;;;;4999965;28;20692;-63
2023/10/11 08:23:44;;;;;;;13.57;7.55;;;14.50;99.90;;;;;;5001982;28;20072;-62
2023/10/11 08:26:14;;;;;;;13.88;7.90;;;14.60;99.90;;;;;;5000691;28;20041;-63
2023/10/11 08:28:49;;;;;;;11.27;7.18;;;14.80;99.90;;;;;;5001474;28;20465;-62
2023/10/11 08:31:35;;;;;;;12.60;7.63;;;15.00;99.90;;;;;;5002221;28;20041;-62
2023/10/11 08:34:01;;;;;;;11.25;7.22;;;15.20;99.90;;;;;;5000827;28;20026;-63
2023/10/11 08:36:29;;;;;;;16.17;7.10;;;15.40;99.90;;;;;;4997038;28;20113;-63
2023/10/11 08:38:56;;;;;;;13.90;6.68;;;15.60;99.90;;;;;;5002041;28;20029;-64
2023/10/11 08:41:22;;;;;;;15.75;7.03;;;15.70;99.90;;;;;;5001029;28;20736;-65
2023/10/11 08:43:49;;;;;;;13.65;6.57;;;15.90;99.90;;;;;;5000776;28;20541;-62
2023/10/11 08:46:18;;;;;;;16.33;7.63;;;16.10;99.90;;;;;;4998338;28;20441;-63
2023/10/11 08:48:49;;;;;;;15.43;7.97;;;16.20;99.90;;;;;;4997985;28;20282;-63
2023/10/11 08:51:22;;;;;;;13.57;7.45;;;16.40;99.90;;;;;;5000020;28;20026;-63
2023/10/11 08:53:54;;;;;;;12.80;6.57;;;16.60;99.90;;;;;;4999134;28;20101;-63
2023/10/11 08:56:23;;;;;;;12.80;6.38;;;16.90;99.90;;;;;;5000961;28;20050;-63
2023/10/11 08:58:51;;;;;;;11.77;5.25;;;17.20;99.90;;;;;;5002244;28;20068;-63
2023/10/11 09:01:17;;;;;;;18.73;5.75;;;17.80;99.90;;;;;;4999722;28;20030;-64
2023/10/11 09:03:43;;;;;;;7.03;5.47;;;18.70;99.90;;;;;;5000112;28;20560;-63
2023/10/11 09:06:22;;;;;;;14.30;5.43;;;19.60;99.90;;;;;;4998743;28;20022;-63
2023/10/11 09:08:49;;;;;;;10.85;5.18;;;20.20;99.90;;;;;;5000455;28;20330;-62
2023/10/11 09:11:28;;;;;;;10.73;5.00;;;20.80;99.90;;;;;;5000171;28;20037;-63
2023/10/11 09:14:22;;;;;;;7.78;4.95;;;21.20;99.90;;;;;;5001694;28;20038;-64
2023/10/11 09:16:57;;;;;;;12.43;4.65;;;21.60;99.90;;;;;;5001218;28;20026;-63
2023/10/11 09:19:26;;;;;;;9.65;5.32;;;21.80;99.90;;;;;;5000403;28;20039;-64
2023/10/11 09:22:18;;;;;;;10.95;5.35;;;22.30;99.90;;;;;;5000342;28;20093;-64
2023/10/11 09:24:44;;;;;;;7.80;4.82;;;22.70;99.90;;;;;;5001079;28;20494;-64
2023/10/11 09:29:50;;;;;;;9.20;5.05;;;23.40;99.10;;;;;;5000630;28;20557;-64
2023/10/11 09:32:19;;;;;;;7.45;4.22;;;23.90;99.90;;;;;;4998377;28;20034;-64
2023/10/11 09:34:51;;;;;;;12.75;5.03;;;24.10;93.50;;;;;;4998670;28;20062;-64
2023/10/11 09:37:18;;;;;;;9.27;4.78;;;24.10;94.20;;;;;;4999422;28;20037;-64
2023/10/11 09:39:44;;;;;;;8.80;4.18;;;24.00;96.30;;;;;;5000229;28;20038;-63
2023/10/11 09:42:12;;;;;;;7.45;4.60;;;23.80;95.40;;;;;;5001783;28;20098;-64
2023/10/11 09:44:44;;;;;;;6.68;4.38;;;23.80;98.70;;;;;;4998065;28;20046;-64
2023/10/11 09:47:19;;;;;;;7.78;4.30;;;23.90;99.70;;;;;;5000059;28;20037;-65
2023/10/11 09:49:47;;;;;;;9.23;4.43;;;24.40;99.60;;;;;;5000072;28;20069;-62
2023/10/11 09:52:16;;;;;;;9.95;4.40;;;24.90;90.80;;;;;;4998870;28;20038;-64
2023/10/11 09:54:43;;;;;;;8.27;3.75;;;24.80;83.30;;;;;;4998444;28;20046;-64
2023/10/11 09:57:56;;;;;;;14.18;4.22;;;24.60;87.70;;;;;;4999248;28;20030;-64
2023/10/11 10:00:40;;;;;;;9.55;3.67;;;24.30;88.40;;;;;;4991951;28;20637;-63
2023/10/11 10:03:12;;;;;;;7.30;3.78;;;24.20;92.10;;;;;;5000081;28;20037;-64
2023/10/11 10:06:05;;;;;;;15.88;4.50;;;24.00;84.00;;;;;;4999372;28;20032;-64
2023/10/11 10:08:31;;;;;;;7.18;4.00;;;23.80;88.90;;;;;;4999966;28;20494;-64
2023/10/11 10:10:57;;;;;;;6.82;3.88;;;23.70;91.50;;;;;;4999506;28;20034;-64
2023/10/11 10:13:25;;;;;;;8.13;3.80;;;23.50;96.30;;;;;;4999953;28;20035;-64
2023/10/11 10:15:56;;;;;;;12.25;3.97;;;23.50;97.00;;;;;;4998161;28;20129;-63
2023/10/11 10:18:23;;;;;;;7.43;3.58;;;23.60;97.00;;;;;;4999045;28;20038;-61
2023/10/11 10:21:02;;;;;;;7.05;3.70;;;23.70;94.60;;;;;;4996426;28;20023;-64
2023/10/11 10:23:38;;;;;;;14.00;3.45;;;23.60;92.80;;;;;;4999192;28;20050;-64
2023/10/11 10:26:03;;;;;;;7.47;3.30;;;23.60;87.90;;;;;;4998031;28;20034;-64
2023/10/11 10:28:45;;;;;;;8.75;4.05;;;23.60;87.20;;;;;;4999947;28;20564;-63
2023/10/11 10:31:19;;;;;;;10.82;3.45;;;23.70;89.40;;;;;;4997888;28;20033;-64
2023/10/11 10:34:12;;;;;;;9.43;3.65;;;23.70;93.00;;;;;;4999525;28;20923;-63
2023/10/11 10:36:40;;;;;;;9.20;3.65;;;23.70;90.40;;;;;;4995921;28;20541;-64
2023/10/11 10:39:33;;;;;;;13.95;4.70;;;23.90;88.90;;;;;;4996490;28;20490;-65
2023/10/11 10:42:13;;;;;;;13.45;4.50;;;24.00;86.10;;;;;;4998633;28;20576;-63
2023/10/11 10:44:51;;;;;;;7.95;3.55;;;24.00;78.60;;;;;;4999616;28;20109;-63
2023/10/11 10:47:32;;;;;;;7.13;3.90;;;24.00;77.00;;;;;;5001612;28;20045;-63
2023/10/11 10:50:05;;;;;;;9.65;3.55;;;24.10;80.70;;;;;;4998786;28;20030;-63
2023/10/11 10:52:31;;;;;;;14.05;4.65;;;24.10;79.50;;;;;;4997657;28;20030;-61
2023/10/11 10:55:01;;;;;;;10.25;3.45;;;24.10;77.60;;;;;;5001591;28;20041;-63
2023/10/11 10:57:27;;;;;;;7.25;3.70;;;24.10;78.60;;;;;;4996041;28;20046;-63
2023/10/11 10:59:54;;;;;;;9.05;3.10;;;24.10;75.50;;;;;;4998336;28;20077;-63
2023/10/11 11:02:20;;;;;;;6.25;3.60;;;24.10;74.00;;;;;;4996991;28;20030;-63
2023/10/11 11:04:46;;;;;;;11.07;3.95;;;24.20;76.70;;;;;;5000008;28;20108;-64
2023/10/11 11:07:22;;;;;;;11.90;3.28;;;24.30;73.40;;;;;;4997847;28;20034;-64
2023/10/11 11:09:57;;;;;;;8.68;3.80;;;24.30;73.40;;;;;;4994798;28;20668;-63
2023/10/11 11:12:28;;;;;;;16.83;3.78;;;24.30;73.30;;;;;;4996979;28;20035;-63
2023/10/11 11:14:55;;;;;;;9.40;3.58;;;24.30;73.80;;;;;;5002516;28;20034;-63
2023/10/11 11:17:26;;;;;;;15.85;3.30;;;24.20;74.10;;;;;;4999436;28;20034;-64
2023/10/11 11:20:14;;;;;;;13.75;3.72;;;24.20;74.10;;;;;;5001893;28;20043;-64
2023/10/11 11:22:46;;;;;;;11.93;3.40;;;24.20;73.30;;;;;;5002182;28;20050;-63
2023/10/11 11:25:27;;;;;;;12.23;3.55;;;24.10;74.60;;;;;;4998480;28;20030;-64
2023/10/11 11:28:06;;;;;;;10.90;3.33;;;24.20;76.00;;;;;;4998361;28;20401;-63
2023/10/11 11:30:36;;;;;;;12.55;3.67;;;24.20;73.00;;;;;;5000319;28;20026;-63
2023/10/11 11:33:13;;;;;;;8.65;3.40;;;24.30;77.40;;;;;;4999980;28;20108;-63
2023/10/11 11:35:52;;;;;;;5.93;3.35;;;24.40;74.20;;;;;;5000279;28;20089;-63
2023/10/11 11:38:24;;;;;;;12.32;3.45;;;24.50;75.40;;;;;;5004355;28;20033;-63
2023/10/11 11:41:03;;;;;;;8.40;3.75;;;24.50;74.40;;;;;;5002216;28;20129;-64
2023/10/11 11:43:32;;;;;;;12.23;3.17;;;24.60;72.70;;;;;;5001200;28;20049;-64
2023/10/11 11:46:01;;;;;;;8.32;3.30;;;24.60;71.70;;;;;;5001494;28;20387;-63
2023/10/11 11:48:28;;;;;;;6.90;3.35;;;24.50;69.70;;;;;;5003334;28;20029;-63
2023/10/11 11:50:57;;;;;;;11.88;4.10;;;24.60;71.60;;;;;;5000122;28;20029;-64
2023/10/11 11:53:23;;;;;;;8.93;3.70;;;24.60;72.10;;;;;;5001357;28;20026;-64
2023/10/11 11:55:49;;;;;;;16.65;3.95;;;24.60;72.00;;;;;;5000121;28;20046;-64
2023/10/11 11:58:17;;;;;;;11.05;3.58;;;24.50;70.30;;;;;;5002255;28;20097;-63
2023/10/11 12:00:59;;;;;;;8.85;3.75;;;24.60;71.10;;;;;;5000657;28;20829;-63
2023/10/11 12:03:25;;;;;;;9.48;3.90;;;24.60;71.70;;;;;;5001005;28;20408;-64
2023/10/11 12:05:52;;;;;;;10.73;3.50;;;24.70;71.10;;;;;;5001316;28;20034;-64
2023/10/11 12:08:20;;;;;;;5.40;3.08;;;24.60;70.00;;;;;;5002844;28;20117;-63
2023/10/11 12:10:49;;;;;;;8.25;2.70;;;24.50;71.90;;;;;;5003871;28;20037;-63
2023/10/11 12:13:26;;;;;;;13.57;3.58;;;24.50;71.00;;;;;;5004077;28;20038;-64
2023/10/11 12:15:55;;;;;;;10.27;3.58;;;24.50;71.70;;;;;;5001898;28;20038;-64
2023/10/11 12:18:35;;;;;;;11.82;3.65;;;24.30;71.20;;;;;;5003666;28;20523;-63
2023/10/11 12:21:10;;;;;;;8.18;3.35;;;24.30;72.00;;;;;;5001096;28;20034;-63
2023/10/11 12:23:36;;;;;;;12.35;3.65;;;24.30;71.40;;;;;;5003736;28;20027;-64
2023/10/11 12:26:04;;;;;;;10.50;3.65;;;24.30;71.90;;;;;;5001649;28;20034;-64
2023/10/11 12:28:30;;;;;;;11.68;4.13;;;24.30;72.70;;;;;;5000206;28;20029;-63
2023/10/11 12:31:00;;;;;;;10.52;4.55;;;24.40;72.20;;;;;;4997516;28;20049;-65
2023/10/11 12:33:27;;;;;;;7.68;3.92;;;24.40;71.90;;;;;;5001939;28;20038;-64
2023/10/11 12:35:53;;;;;;;9.70;3.58;;;24.40;71.50;;;;;;5015748;28;20560;-65
2023/10/11 12:38:18;;;;;;;10.32;3.67;;;24.40;71.50;;;;;;4999378;28;20022;-64
2023/10/11 12:40:44;;;;;;;17.52;4.40;;;24.40;72.50;;;;;;4999384;28;20038;-61
2023/10/11 12:43:10;;;;;;;10.23;3.35;;;24.40;72.50;;;;;;4995797;28;20081;-62
2023/10/11 12:45:42;;;;;;;21.02;3.92;;;24.50;72.70;;;;;;4998900;28;20040;-62
2023/10/11 12:48:10;;;;;;;11.57;3.97;;;24.50;73.60;;;;;;5001389;28;20109;-62
2023/10/11 12:50:36;;;;;;;6.68;3.20;;;24.70;73.90;;;;;;5000370;28;20072;-62
2023/10/11 12:53:12;;;;;;;9.98;3.25;;;24.70;72.60;;;;;;4999289;28;20117;-60
2023/10/11 12:55:41;;;;;;;10.18;3.20;;;24.80;72.20;;;;;;5000782;28;20085;-62
2023/10/11 12:58:08;;;;;;;10.00;3.75;;;24.80;72.50;;;;;;4997580;28;20497;-63
2023/10/11 13:00:37;;;;;;;10.50;3.60;;;24.90;72.80;;;;;;4996499;28;20386;-62
2023/10/11 13:05:47;;;;;;;9.18;3.75;;;24.80;71.50;;;;;;4998928;28;20092;-62
2023/10/11 13:08:15;;;;;;;8.27;3.30;;;24.80;71.10;;;;;;4997821;28;20042;-62
2023/10/11 13:10:48;;;;;;;7.25;3.80;;;24.80;71.40;;;;;;4999700;28;20405;-63
2023/10/11 13:13:15;;;;;;;9.27;3.28;;;24.90;70.30;;;;;;4998346;28;20125;-62
2023/10/11 13:15:55;;;;;;;12.27;3.80;;;24.90;69.20;;;;;;4999519;28;20038;-62
2023/10/11 13:18:22;;;;;;;8.98;3.83;;;24.80;70.40;;;;;;5002277;28;20033;-62
2023/10/11 13:20:47;;;;;;;10.15;3.92;;;24.90;71.90;;;;;;5015113;28;20044;-62
2023/10/11 13:23:13;;;;;;;27.88;3.78;;;24.90;72.10;;;;;;4998837;28;20053;-62
2023/10/11 13:25:39;;;;;;;8.13;3.20;;;25.00;73.10;;;;;;4999496;28;20034;-62
2023/10/11 13:28:04;;;;;;;9.02;3.53;;;24.90;70.00;;;;;;4999491;28;20057;-62
2023/10/11 13:30:36;;;;;;;15.52;3.72;;;24.90;69.90;;;;;;4999119;28;20030;-62
2023/10/11 13:33:05;;;;;;;5.78;3.13;;;24.90;70.40;;;;;;4999573;28;20025;-62
2023/10/11 13:35:35;;;;;;;10.02;3.85;;;24.90;72.30;;;;;;4999686;28;20508;-62
2023/10/11 13:38:04;;;;;;;15.30;4.70;;;25.00;72.50;;;;;;4998618;28;20065;-62
2023/10/11 13:40:32;;;;;;;10.32;4.30;;;25.00;71.00;;;;;;5000147;28;20026;-63
2023/10/11 13:42:57;;;;;;;11.85;3.53;;;25.00;70.30;;;;;;5000806;28;20030;-63
2023/10/11 13:45:23;;;;;;;5.88;2.65;;;25.00;70.30;;;;;;5000110;28;20570;-63
2023/10/11 13:47:51;;;;;;;6.65;3.08;;;25.00;71.30;;;;;;4999660;28;20028;-63
2023/10/11 13:50:20;;;;;;;6.18;3.75;;;25.10;73.00;;;;;;4998702;28;20030;-60
2023/10/11 13:52:52;;;;;;;14.05;3.35;;;25.10;71.70;;;;;;4997479;28;20057;-63
2023/10/11 13:55:24;;;;;;;7.50;3.33;;;25.20;73.20;;;;;;4997385;28;20096;-62
2023/10/11 13:57:52;;;;;;;8.35;3.42;;;25.20;68.60;;;;;;4996735;28;20043;-62
2023/10/11 14:08:44;;;;;;;5.35;2.70;;;25.60;66.60;;;;;;5001642;28;20064;-64